Time;durP1;ratioP1;P1;durP2;ratioP2;P2;SDS_P1;SDS_P2;PMS_P1;PMS_P2;Temp;Humidity;BMP_temperature;BMP_pressure;BME280_temperature;BME280_humidity;BME280_pressure;Samples;Min_cycle;Max_cycle;Signal;HPM_P1;HPM_P2
2022/03/26 00:00:33;;;;;;;26.05;14.60;;;;;;;;;;4975470;28;20211;-80
2022/03/26 00:02:59;;;;;;;26.83;14.60;;;;;;;;;;4982849;28;20188;-80
2022/03/26 00:05:25;;;;;;;25.42;14.38;;;;;;;;;;4997649;28;20172;-81
2022/03/26 00:07:51;;;;;;;21.30;12.75;;;;;;;;;;4982294;28;20168;-80
2022/03/26 00:10:17;;;;;;;24.40;13.70;;;;;;;;;;4982735;28;20196;-80
2022/03/26 00:12:43;;;;;;;22.10;12.70;;;;;;;;;;4983332;28;20267;-80
2022/03/26 00:15:10;;;;;;;18.65;11.77;;;;;;;;;;4982322;28;20192;-80
2022/03/26 00:17:37;;;;;;;22.60;13.30;;;;;;;;;;4982351;28;20180;-80
2022/03/26 00:20:03;;;;;;;20.40;13.98;;;;;;;;;;4986061;28;20175;-81
2022/03/26 00:22:29;;;;;;;23.42;13.00;;;;;;;;;;4986813;28;20188;-80
2022/03/26 00:24:55;;;;;;;20.92;13.93;;;;;;;;;;4982720;28;20195;-80
2022/03/26 00:27:21;;;;;;;21.83;12.70;;;;;;;;;;4987072;28;20191;-80
2022/03/26 00:29:47;;;;;;;21.27;11.70;;;;;;;;;;4985423;28;20251;-80
2022/03/26 00:32:13;;;;;;;26.55;13.20;;;;;;;;;;5000048;28;20173;-80
2022/03/26 00:34:39;;;;;;;23.48;12.30;;;;;;;;;;4985061;28;20172;-80
2022/03/26 00:37:05;;;;;;;28.92;14.38;;;;;;;;;;4986279;28;20212;-80
2022/03/26 00:39:32;;;;;;;27.70;14.25;;;;;;;;;;4984544;28;20180;-81
2022/03/26 00:41:58;;;;;;;20.42;13.90;;;;;;;;;;4985743;28;20206;-80
2022/03/26 00:44:24;;;;;;;20.90;13.02;;;;;;;;;;4987114;28;20231;-80
2022/03/26 00:46:50;;;;;;;22.80;13.32;;;;;;;;;;4986330;28;20211;-80
2022/03/26 00:49:17;;;;;;;20.75;12.70;;;;;;;;;;4985901;28;20247;-81
2022/03/26 00:51:43;;;;;;;22.88;13.27;;;;;;;;;;4983857;28;20214;-80
2022/03/26 00:54:10;;;;;;;21.42;13.00;;;;;;;;;;4986007;28;20200;-80
2022/03/26 00:56:37;;;;;;;25.23;13.98;;;;;;;;;;4986686;28;20288;-81
2022/03/26 00:59:04;;;;;;;23.65;12.90;;;;;;;;;;4983165;28;20172;-80
2022/03/26 01:01:30;;;;;;;22.45;12.93;;;;;;;;;;4998040;28;20209;-80
2022/03/26 01:03:56;;;;;;;24.55;12.05;;;;;;;;;;4981358;28;20187;-80
2022/03/26 01:06:22;;;;;;;23.20;13.30;;;;;;;;;;4986097;28;20199;-80
2022/03/26 01:08:48;;;;;;;24.80;13.45;;;;;;;;;;4985712;28;20462;-80
2022/03/26 01:11:14;;;;;;;20.40;12.73;;;;;;;;;;4998551;28;20220;-80
2022/03/26 01:13:40;;;;;;;22.95;14.18;;;;;;;;;;4986929;28;20192;-80
2022/03/26 01:16:06;;;;;;;21.30;13.70;;;;;;;;;;4985298;28;20215;-80
2022/03/26 01:18:33;;;;;;;21.17;13.32;;;;;;;;;;4982906;28;20203;-80
2022/03/26 01:20:59;;;;;;;20.13;13.10;;;;;;;;;;4978631;28;20191;-81
2022/03/26 01:23:25;;;;;;;25.52;13.80;;;;;;;;;;4999565;28;20179;-80
2022/03/26 01:25:51;;;;;;;21.90;13.30;;;;;;;;;;4986608;28;20183;-80
2022/03/26 01:28:17;;;;;;;20.15;13.65;;;;;;;;;;4981419;28;20181;-80
2022/03/26 01:30:43;;;;;;;18.47;13.03;;;;;;;;;;4988295;28;20200;-80
2022/03/26 01:33:09;;;;;;;21.30;13.70;;;;;;;;;;4989688;28;20933;-80
2022/03/26 01:35:35;;;;;;;22.98;14.10;;;;;;;;;;4985323;28;20212;-80
2022/03/26 01:38:04;;;;;;;19.70;13.73;;;;;;;;;;4986489;28;20180;-80
2022/03/26 01:40:31;;;;;;;26.38;15.45;;;;;;;;;;4980155;28;20184;-80
2022/03/26 01:42:57;;;;;;;31.98;15.77;;;;;;;;;;4989961;28;20208;-80
2022/03/26 01:45:23;;;;;;;24.35;14.45;;;;;;;;;;4975813;28;20561;-80
2022/03/26 01:47:49;;;;;;;25.92;15.80;;;;;;;;;;4985107;28;20187;-80
2022/03/26 01:50:15;;;;;;;19.95;12.68;;;;;;;;;;4985617;28;20176;-80
2022/03/26 01:52:41;;;;;;;23.35;13.65;;;;;;;;;;4985949;28;20184;-80
2022/03/26 01:55:08;;;;;;;21.60;13.77;;;;;;;;;;4985284;28;20219;-80
2022/03/26 01:57:34;;;;;;;22.13;15.45;;;;;;;;;;4980874;28;20181;-80
2022/03/26 02:00:00;;;;;;;23.35;16.00;;;;;;;;;;4972897;28;20280;-80
2022/03/26 02:02:26;;;;;;;22.80;14.07;;;;;;;;;;4984878;28;20176;-80
2022/03/26 02:04:52;;;;;;;25.63;13.90;;;;;;;;;;4986093;28;20180;-80
2022/03/26 02:07:18;;;;;;;24.05;14.75;;;;;;;;;;4984745;28;20257;-80
2022/03/26 02:09:45;;;;;;;21.63;13.95;;;;;;;;;;4980628;28;20200;-80
2022/03/26 02:12:27;;;;;;;29.65;14.18;;;;;;;;;;4974314;28;20227;-80
2022/03/26 02:14:53;;;;;;;24.75;13.32;;;;;;;;;;4985107;28;20274;-80
2022/03/26 02:17:20;;;;;;;25.77;14.30;;;;;;;;;;4984144;28;20199;-80
2022/03/26 02:19:50;;;;;;;22.85;13.95;;;;;;;;;;4985524;28;20183;-80
2022/03/26 02:22:16;;;;;;;23.27;13.50;;;;;;;;;;4979759;28;20653;-80
2022/03/26 02:24:42;;;;;;;25.05;14.05;;;;;;;;;;4977396;28;20218;-80
2022/03/26 02:27:08;;;;;;;26.15;15.40;;;;;;;;;;4985041;28;20207;-80
2022/03/26 02:29:34;;;;;;;25.58;13.77;;;;;;;;;;4984245;28;20234;-80
2022/03/26 02:32:01;;;;;;;25.60;15.30;;;;;;;;;;4984180;28;20171;-80
2022/03/26 02:34:27;;;;;;;22.73;13.18;;;;;;;;;;4976116;28;20188;-80
2022/03/26 02:36:57;;;;;;;22.40;15.77;;;;;;;;;;4983356;28;20238;-80
2022/03/26 02:39:23;;;;;;;24.77;16.30;;;;;;;;;;4999275;28;20557;-80
2022/03/26 02:41:49;;;;;;;26.83;15.60;;;;;;;;;;4982590;28;20192;-80
2022/03/26 02:44:15;;;;;;;45.15;17.50;;;;;;;;;;4984936;28;20716;-80
2022/03/26 02:46:43;;;;;;;26.67;15.27;;;;;;;;;;4982701;28;20187;-80
2022/03/26 02:49:09;;;;;;;28.02;16.55;;;;;;;;;;4995075;28;20418;-80
2022/03/26 02:51:35;;;;;;;25.35;15.90;;;;;;;;;;4976383;28;20196;-80
2022/03/26 02:54:01;;;;;;;25.80;15.90;;;;;;;;;;4982763;28;20191;-80
2022/03/26 02:56:27;;;;;;;26.70;16.45;;;;;;;;;;4998347;28;20478;-80
2022/03/26 02:58:53;;;;;;;30.67;17.67;;;;;;;;;;4984025;28;20206;-80
2022/03/26 03:01:20;;;;;;;31.10;16.33;;;;;;;;;;4983856;28;20183;-80
2022/03/26 03:03:46;;;;;;;29.33;15.60;;;;;;;;;;4980606;28;20211;-80
2022/03/26 03:06:12;;;;;;;27.33;14.90;;;;;;;;;;4984273;28;20188;-80
2022/03/26 03:08:38;;;;;;;21.00;13.88;;;;;;;;;;4983299;28;20199;-80
2022/03/26 03:11:04;;;;;;;30.88;17.48;;;;;;;;;;4980575;28;20540;-80
2022/03/26 03:13:29;;;;;;;23.92;15.93;;;;;;;;;;4984679;28;20195;-80
2022/03/26 03:15:58;;;;;;;26.40;15.75;;;;;;;;;;4982940;28;20234;-80
2022/03/26 03:18:24;;;;;;;25.48;15.30;;;;;;;;;;4982380;28;20207;-80
2022/03/26 03:20:50;;;;;;;27.42;17.35;;;;;;;;;;4983866;28;20191;-80
2022/03/26 03:23:16;;;;;;;25.90;15.90;;;;;;;;;;4997444;28;20168;-80
2022/03/26 03:25:42;;;;;;;25.73;15.55;;;;;;;;;;4984400;28;20657;-80
2022/03/26 03:28:08;;;;;;;25.77;15.50;;;;;;;;;;4983982;28;20268;-80
2022/03/26 03:30:34;;;;;;;33.15;18.20;;;;;;;;;;4978062;28;20275;-80
2022/03/26 03:33:00;;;;;;;30.67;19.95;;;;;;;;;;4975636;28;20187;-80
2022/03/26 03:35:26;;;;;;;33.58;15.85;;;;;;;;;;4998315;28;20299;-80
2022/03/26 03:37:52;;;;;;;32.28;17.35;;;;;;;;;;4984909;28;20278;-80
2022/03/26 03:40:18;;;;;;;25.42;18.25;;;;;;;;;;4983630;28;20202;-80
2022/03/26 03:42:44;;;;;;;31.50;18.98;;;;;;;;;;4979283;28;20185;-80
2022/03/26 03:45:11;;;;;;;35.22;18.80;;;;;;;;;;4992959;28;20172;-80
2022/03/26 03:47:38;;;;;;;37.38;17.90;;;;;;;;;;4981590;28;20199;-80
2022/03/26 03:50:04;;;;;;;28.17;17.58;;;;;;;;;;4984816;28;20172;-80
2022/03/26 03:52:30;;;;;;;29.02;16.80;;;;;;;;;;4979174;28;20184;-80
2022/03/26 03:54:57;;;;;;;28.65;15.65;;;;;;;;;;4982784;28;20191;-80
2022/03/26 03:57:23;;;;;;;29.02;16.95;;;;;;;;;;4987964;28;20223;-80
2022/03/26 03:59:49;;;;;;;29.38;17.10;;;;;;;;;;4985779;28;20172;-80
2022/03/26 04:02:16;;;;;;;29.77;16.90;;;;;;;;;;4985696;28;20191;-80
2022/03/26 04:04:42;;;;;;;30.45;18.15;;;;;;;;;;4988141;28;20182;-80
2022/03/26 04:07:08;;;;;;;28.27;17.35;;;;;;;;;;4980675;28;20753;-80
2022/03/26 04:09:35;;;;;;;30.10;16.15;;;;;;;;;;4978787;28;20195;-80
2022/03/26 04:12:01;;;;;;;26.00;16.73;;;;;;;;;;4985374;28;20235;-80
2022/03/26 04:14:29;;;;;;;31.88;17.08;;;;;;;;;;4987560;28;20255;-79
2022/03/26 04:16:55;;;;;;;25.45;16.73;;;;;;;;;;4985630;28;20203;-80
2022/03/26 04:19:21;;;;;;;34.13;18.02;;;;;;;;;;4977685;28;20275;-80
2022/03/26 04:21:47;;;;;;;27.10;17.48;;;;;;;;;;4981069;28;20655;-80
2022/03/26 04:24:14;;;;;;;32.22;18.70;;;;;;;;;;4985046;28;20180;-80
2022/03/26 04:26:40;;;;;;;33.90;18.90;;;;;;;;;;4987147;28;20187;-80
2022/03/26 04:29:06;;;;;;;35.22;20.45;;;;;;;;;;4987911;28;20183;-80
2022/03/26 04:31:32;;;;;;;28.85;18.65;;;;;;;;;;4986408;28;20247;-80
2022/03/26 04:34:01;;;;;;;28.00;17.92;;;;;;;;;;4986954;28;20192;-80
2022/03/26 04:36:27;;;;;;;30.67;17.92;;;;;;;;;;4986842;28;20210;-80
2022/03/26 04:38:53;;;;;;;27.30;16.50;;;;;;;;;;4986479;28;20575;-80
2022/03/26 04:41:19;;;;;;;34.83;18.58;;;;;;;;;;4985008;28;20270;-80
2022/03/26 04:43:45;;;;;;;34.35;20.33;;;;;;;;;;4987479;28;20187;-80
2022/03/26 04:46:11;;;;;;;34.88;17.63;;;;;;;;;;4985000;28;20192;-80
2022/03/26 04:48:37;;;;;;;34.15;17.80;;;;;;;;;;4987016;28;20180;-80
2022/03/26 04:51:04;;;;;;;35.00;20.13;;;;;;;;;;4986520;28;20183;-80
2022/03/26 04:53:29;;;;;;;36.78;19.52;;;;;;;;;;4986187;28;20191;-80
2022/03/26 04:55:55;;;;;;;35.20;19.98;;;;;;;;;;4987182;28;20268;-80
2022/03/26 04:58:21;;;;;;;29.10;18.55;;;;;;;;;;4982048;28;20184;-80
2022/03/26 05:00:47;;;;;;;38.20;19.48;;;;;;;;;;4979876;28;20188;-80
2022/03/26 05:03:13;;;;;;;32.55;19.90;;;;;;;;;;4984900;28;20220;-80
2022/03/26 05:05:39;;;;;;;34.10;19.65;;;;;;;;;;4985175;28;20203;-80
2022/03/26 05:08:05;;;;;;;31.15;19.45;;;;;;;;;;5001747;28;20180;-80
2022/03/26 05:10:32;;;;;;;32.95;18.75;;;;;;;;;;4998005;28;20189;-79
2022/03/26 05:12:58;;;;;;;42.65;20.55;;;;;;;;;;4981344;28;20308;-80
2022/03/26 05:15:27;;;;;;;33.17;19.20;;;;;;;;;;4983952;28;20216;-80
2022/03/26 05:17:53;;;;;;;36.58;17.83;;;;;;;;;;4985683;28;20180;-80
2022/03/26 05:20:20;;;;;;;39.90;19.98;;;;;;;;;;4986039;28;20235;-80
2022/03/26 05:22:47;;;;;;;36.58;21.05;;;;;;;;;;4984474;28;20184;-80
2022/03/26 05:25:14;;;;;;;29.55;19.40;;;;;;;;;;4998281;28;20212;-79
2022/03/26 05:27:43;;;;;;;33.95;20.05;;;;;;;;;;4996699;28;20200;-80
2022/03/26 05:30:10;;;;;;;33.40;19.10;;;;;;;;;;4989466;28;20187;-80
2022/03/26 05:32:36;;;;;;;35.63;18.88;;;;;;;;;;4985703;28;20184;-80
2022/03/26 05:35:03;;;;;;;43.95;20.92;;;;;;;;;;4985468;28;20268;-80
2022/03/26 05:37:30;;;;;;;37.42;23.63;;;;;;;;;;4986214;28;20193;-80
2022/03/26 05:39:56;;;;;;;33.03;19.58;;;;;;;;;;4985470;28;20199;-80
2022/03/26 05:42:23;;;;;;;33.75;20.60;;;;;;;;;;4983710;28;20184;-80
2022/03/26 05:44:49;;;;;;;33.60;19.92;;;;;;;;;;4985128;28;20188;-80
2022/03/26 05:47:15;;;;;;;34.03;19.38;;;;;;;;;;4998316;28;20177;-80
2022/03/26 05:49:41;;;;;;;36.20;18.80;;;;;;;;;;4984554;28;20555;-80
2022/03/26 05:52:08;;;;;;;33.17;20.13;;;;;;;;;;4997137;28;20196;-80
2022/03/26 05:54:34;;;;;;;36.65;20.52;;;;;;;;;;4976299;28;20202;-80
2022/03/26 05:57:00;;;;;;;34.42;20.45;;;;;;;;;;4984914;28;20207;-80
2022/03/26 05:59:26;;;;;;;38.90;20.90;;;;;;;;;;4984262;28;20192;-80
2022/03/26 06:01:56;;;;;;;36.45;20.75;;;;;;;;;;4984977;28;20219;-80
2022/03/26 06:04:27;;;;;;;37.38;20.50;;;;;;;;;;4985291;28;20194;-80
2022/03/26 06:06:53;;;;;;;35.75;19.55;;;;;;;;;;4979570;28;20460;-80
2022/03/26 06:09:19;;;;;;;39.30;23.08;;;;;;;;;;4976454;28;20188;-80
2022/03/26 06:11:45;;;;;;;37.30;20.52;;;;;;;;;;4984483;28;20294;-80
2022/03/26 06:14:11;;;;;;;43.38;21.75;;;;;;;;;;4983901;28;20187;-80
2022/03/26 06:16:37;;;;;;;32.13;19.00;;;;;;;;;;4983430;28;20267;-80
2022/03/26 06:19:03;;;;;;;43.92;22.55;;;;;;;;;;4993881;28;20238;-80
2022/03/26 06:21:29;;;;;;;42.08;22.17;;;;;;;;;;4982075;28;20198;-80
2022/03/26 06:23:58;;;;;;;34.95;20.38;;;;;;;;;;4998101;28;20187;-80
2022/03/26 06:26:24;;;;;;;32.13;19.23;;;;;;;;;;4982527;28;20176;-79
2022/03/26 06:28:50;;;;;;;41.08;20.10;;;;;;;;;;4984624;28;20704;-79
2022/03/26 06:31:16;;;;;;;43.03;21.73;;;;;;;;;;4973686;28;20257;-79
2022/03/26 06:33:42;;;;;;;37.65;20.80;;;;;;;;;;4994292;28;20184;-79
2022/03/26 06:36:08;;;;;;;45.78;22.30;;;;;;;;;;4973244;28;20274;-79
2022/03/26 06:38:38;;;;;;;37.88;20.75;;;;;;;;;;4968497;28;20216;-79
2022/03/26 06:41:06;;;;;;;38.13;20.15;;;;;;;;;;4983219;28;20176;-79
2022/03/26 06:43:32;;;;;;;36.05;21.20;;;;;;;;;;4995461;28;20180;-79
2022/03/26 06:45:58;;;;;;;39.80;21.70;;;;;;;;;;4979175;28;20211;-79
2022/03/26 06:48:24;;;;;;;39.97;22.83;;;;;;;;;;4982916;28;20184;-79
2022/03/26 06:50:50;;;;;;;34.33;20.48;;;;;;;;;;4982401;28;20183;-79
2022/03/26 06:53:16;;;;;;;45.13;22.73;;;;;;;;;;4996557;28;20657;-79
2022/03/26 06:55:43;;;;;;;40.80;21.13;;;;;;;;;;4983958;28;20200;-79
2022/03/26 06:58:09;;;;;;;42.35;22.23;;;;;;;;;;4979118;28;20188;-79
2022/03/26 07:00:35;;;;;;;46.72;22.75;;;;;;;;;;4987347;28;20187;-79
2022/03/26 07:03:01;;;;;;;40.65;23.23;;;;;;;;;;4981170;28;20459;-79
2022/03/26 07:05:27;;;;;;;42.67;26.20;;;;;;;;;;4983021;28;20756;-78
2022/03/26 07:07:53;;;;;;;43.08;25.27;;;;;;;;;;4983729;28;20186;-79
2022/03/26 07:10:19;;;;;;;49.40;26.38;;;;;;;;;;4981516;28;20259;-78
2022/03/26 07:12:45;;;;;;;51.60;26.73;;;;;;;;;;4940258;28;1122905;-79
2022/03/26 07:15:12;;;;;;;47.38;26.85;;;;;;;;;;4987135;28;20187;-79
2022/03/26 07:17:44;;;;;;;48.90;27.55;;;;;;;;;;4982830;28;20175;-79
2022/03/26 07:20:10;;;;;;;57.88;30.42;;;;;;;;;;4982871;28;20176;-79
2022/03/26 07:22:36;;;;;;;50.13;28.35;;;;;;;;;;4982241;28;20179;-79
2022/03/26 07:25:04;;;;;;;48.85;28.85;;;;;;;;;;4981527;28;20195;-80
2022/03/26 07:27:34;;;;;;;59.40;29.33;;;;;;;;;;4997275;28;20196;-79
2022/03/26 07:30:00;;;;;;;51.42;27.25;;;;;;;;;;4997357;28;20192;-79
2022/03/26 07:32:26;;;;;;;50.80;29.60;;;;;;;;;;4996836;28;20784;-79
2022/03/26 07:34:52;;;;;;;45.55;26.27;;;;;;;;;;4983046;28;20184;-77
2022/03/26 07:37:19;;;;;;;48.83;27.98;;;;;;;;;;4980872;28;20235;-77
2022/03/26 07:39:45;;;;;;;44.78;27.00;;;;;;;;;;4979258;28;20194;-78
2022/03/26 07:42:11;;;;;;;42.95;26.02;;;;;;;;;;4981353;28;20183;-78
2022/03/26 07:44:37;;;;;;;47.47;26.38;;;;;;;;;;4982543;28;20271;-78
2022/03/26 07:47:03;;;;;;;43.75;25.50;;;;;;;;;;4980979;28;20188;-77
2022/03/26 07:49:29;;;;;;;43.78;26.67;;;;;;;;;;4982183;28;20211;-78
2022/03/26 07:51:55;;;;;;;45.88;25.20;;;;;;;;;;4983591;28;20552;-78
2022/03/26 07:54:21;;;;;;;47.03;26.80;;;;;;;;;;4977997;28;20188;-77
2022/03/26 07:56:47;;;;;;;43.92;26.50;;;;;;;;;;4981346;28;20215;-77
2022/03/26 07:59:13;;;;;;;44.87;24.77;;;;;;;;;;4979526;28;20181;-78
2022/03/26 08:01:39;;;;;;;47.00;26.20;;;;;;;;;;4982366;28;21057;-77
2022/03/26 08:04:05;;;;;;;43.22;25.83;;;;;;;;;;4977788;28;20184;-78
2022/03/26 08:06:31;;;;;;;40.13;26.67;;;;;;;;;;4995913;28;20269;-77
2022/03/26 08:08:57;;;;;;;43.00;24.48;;;;;;;;;;4979753;28;20195;-77
2022/03/26 08:11:23;;;;;;;35.10;22.95;;;;;;;;;;4978944;28;20176;-78
2022/03/26 08:13:49;;;;;;;39.60;22.13;;;;;;;;;;4982916;28;20233;-78
2022/03/26 08:16:16;;;;;;;42.38;23.10;;;;;;;;;;4982086;28;20516;-78
2022/03/26 08:18:44;;;;;;;40.72;23.60;;;;;;;;;;4980436;28;20191;-78
2022/03/26 08:21:10;;;;;;;39.63;22.33;;;;;;;;;;4982121;28;20180;-79
2022/03/26 08:23:36;;;;;;;40.38;23.70;;;;;;;;;;4982165;28;20179;-79
2022/03/26 08:28:48;;;;;;;40.15;22.63;;;;;;;;;;4984422;28;20226;-78
2022/03/26 08:31:14;;;;;;;47.22;24.27;;;;;;;;;;4982910;28;20652;-78
2022/03/26 08:33:40;;;;;;;46.42;25.42;;;;;;;;;;4977091;28;20185;-78
2022/03/26 08:36:07;;;;;;;41.60;24.83;;;;;;;;;;4988546;28;20581;-79
2022/03/26 08:38:33;;;;;;;40.85;26.63;;;;;;;;;;4982680;28;20183;-80
2022/03/26 08:40:59;;;;;;;38.97;23.88;;;;;;;;;;4987391;28;20180;-79
2022/03/26 08:43:25;;;;;;;39.75;24.88;;;;;;;;;;4976388;28;20212;-78
2022/03/26 08:45:51;;;;;;;39.97;24.38;;;;;;;;;;4985123;28;20219;-79
2022/03/26 08:48:17;;;;;;;36.13;23.30;;;;;;;;;;4984738;28;20194;-79
2022/03/26 08:50:44;;;;;;;39.38;23.40;;;;;;;;;;5001590;28;20183;-80
2022/03/26 08:53:13;;;;;;;46.28;25.45;;;;;;;;;;4984559;28;20184;-79
2022/03/26 08:55:39;;;;;;;40.42;25.38;;;;;;;;;;4986157;28;20612;-78
2022/03/26 08:58:07;;;;;;;38.03;24.38;;;;;;;;;;4985150;28;20187;-79
2022/03/26 09:00:34;;;;;;;38.63;23.55;;;;;;;;;;4984719;28;20187;-77
2022/03/26 09:03:00;;;;;;;38.25;24.88;;;;;;;;;;4985954;28;20396;-78
2022/03/26 09:05:26;;;;;;;37.27;23.20;;;;;;;;;;5000443;28;20183;-80
2022/03/26 09:07:52;;;;;;;37.38;22.25;;;;;;;;;;4985694;28;20450;-81
2022/03/26 09:10:18;;;;;;;40.13;22.48;;;;;;;;;;4984704;28;20188;-80
2022/03/26 09:12:44;;;;;;;36.28;20.98;;;;;;;;;;4985707;28;20228;-80
2022/03/26 09:15:13;;;;;;;36.55;21.17;;;;;;;;;;4985510;28;20176;-80
2022/03/26 09:17:39;;;;;;;34.38;20.10;;;;;;;;;;4985882;28;20216;-78
2022/03/26 09:20:06;;;;;;;36.45;21.95;;;;;;;;;;5001077;28;20192;-78
2022/03/26 09:22:33;;;;;;;30.58;19.40;;;;;;;;;;4985113;28;20191;-78
2022/03/26 09:24:59;;;;;;;32.05;20.75;;;;;;;;;;4985374;28;20194;-78
2022/03/26 09:27:25;;;;;;;31.05;20.10;;;;;;;;;;4985411;28;20194;-79
2022/03/26 09:29:51;;;;;;;31.45;19.40;;;;;;;;;;4985891;28;20195;-80
2022/03/26 09:32:17;;;;;;;34.85;21.27;;;;;;;;;;5000646;28;20184;-78
2022/03/26 09:34:43;;;;;;;36.42;21.42;;;;;;;;;;4985651;28;20180;-77
2022/03/26 09:37:10;;;;;;;32.58;21.40;;;;;;;;;;4983009;28;20257;-77
2022/03/26 09:39:36;;;;;;;30.02;20.08;;;;;;;;;;4983307;28;20239;-77
2022/03/26 09:42:03;;;;;;;29.90;19.00;;;;;;;;;;5000337;28;20187;-78
2022/03/26 09:44:31;;;;;;;32.80;20.73;;;;;;;;;;4985466;28;20435;-78
2022/03/26 09:46:57;;;;;;;37.85;21.73;;;;;;;;;;4984058;28;20211;-78
2022/03/26 09:49:23;;;;;;;34.47;19.53;;;;;;;;;;4981869;28;20199;-79
2022/03/26 09:51:56;;;;;;;33.10;18.87;;;;;;;;;;4982639;28;20518;-81
2022/03/26 09:54:25;;;;;;;32.53;20.65;;;;;;;;;;4984698;28;20549;-82
2022/03/26 09:56:51;;;;;;;31.40;20.75;;;;;;;;;;4983696;28;20872;-79
2022/03/26 09:59:21;;;;;;;35.03;19.85;;;;;;;;;;4998645;28;20256;-80
2022/03/26 10:01:47;;;;;;;33.30;19.73;;;;;;;;;;4986615;28;20201;-77
2022/03/26 10:04:13;;;;;;;32.42;18.92;;;;;;;;;;4985067;28;20218;-78
2022/03/26 10:06:50;;;;;;;30.80;19.73;;;;;;;;;;4983203;28;20184;-79
2022/03/26 10:09:35;;;;;;;29.77;19.00;;;;;;;;;;4983746;28;20442;-78
2022/03/26 10:12:01;;;;;;;32.05;18.27;;;;;;;;;;4983740;28;20234;-79
2022/03/26 10:14:47;;;;;;;34.15;21.05;;;;;;;;;;4998889;28;20676;-79
2022/03/26 10:17:13;;;;;;;32.60;19.75;;;;;;;;;;4984199;28;20208;-82
2022/03/26 10:19:58;;;;;;;33.20;20.65;;;;;;;;;;4984234;28;20176;-79
2022/03/26 10:22:31;;;;;;;35.20;20.70;;;;;;;;;;4982698;28;20242;-82
2022/03/26 10:24:59;;;;;;;34.90;20.23;;;;;;;;;;4982867;28;20188;-79
2022/03/26 10:27:25;;;;;;;31.48;19.90;;;;;;;;;;4990361;28;20257;-79
2022/03/26 10:29:53;;;;;;;30.40;19.65;;;;;;;;;;4984426;28;20195;-81
2022/03/26 10:35:07;;;;;;;35.45;21.30;;;;;;;;;;4983933;28;20193;-80
2022/03/26 10:37:47;;;;;;;32.60;20.10;;;;;;;;;;4994646;28;20298;-78
2022/03/26 10:40:17;;;;;;;34.00;22.23;;;;;;;;;;4982774;28;20214;-78
2022/03/26 10:42:43;;;;;;;32.42;20.77;;;;;;;;;;4984708;28;20191;-75
2022/03/26 10:45:17;;;;;;;34.97;22.10;;;;;;;;;;4984006;28;20183;-78
2022/03/26 10:47:43;;;;;;;33.85;21.77;;;;;;;;;;4983676;28;20194;-77
2022/03/26 10:50:13;;;;;;;35.37;21.53;;;;;;;;;;4985125;28;20256;-77
2022/03/26 10:52:39;;;;;;;35.25;21.38;;;;;;;;;;4985164;28;20870;-78
2022/03/26 10:55:12;;;;;;;35.53;22.03;;;;;;;;;;4978924;28;20280;-79
2022/03/26 10:57:39;;;;;;;39.90;22.48;;;;;;;;;;4986778;28;20466;-78
2022/03/26 11:00:05;;;;;;;31.88;21.58;;;;;;;;;;4994112;28;20665;-78
2022/03/26 11:02:32;;;;;;;33.33;22.92;;;;;;;;;;4981898;28;20184;-81
2022/03/26 11:04:59;;;;;;;36.28;22.38;;;;;;;;;;4983965;28;20179;-80
2022/03/26 11:07:25;;;;;;;31.70;21.65;;;;;;;;;;4998851;28;20657;-80
2022/03/26 11:09:52;;;;;;;29.65;19.48;;;;;;;;;;4984926;28;20293;-78
2022/03/26 11:12:18;;;;;;;31.77;20.75;;;;;;;;;;4998970;28;20302;-77
2022/03/26 11:14:44;;;;;;;28.83;20.08;;;;;;;;;;4974391;28;20240;-79
2022/03/26 11:17:29;;;;;;;28.70;19.98;;;;;;;;;;4977455;28;20200;-81
2022/03/26 11:20:01;;;;;;;31.20;20.23;;;;;;;;;;4979671;28;20582;-79
2022/03/26 11:22:51;;;;;;;28.70;19.38;;;;;;;;;;4981674;28;20724;-78
2022/03/26 11:25:36;;;;;;;31.92;21.63;;;;;;;;;;4982815;28;20239;-81
2022/03/26 11:28:21;;;;;;;34.20;23.25;;;;;;;;;;4983230;28;20194;-77
2022/03/26 11:31:02;;;;;;;29.98;20.50;;;;;;;;;;4978136;28;20188;-82
2022/03/26 11:33:36;;;;;;;31.65;22.10;;;;;;;;;;4994955;28;20188;-82
2022/03/26 11:36:04;;;;;;;31.35;21.55;;;;;;;;;;4981876;28;20282;-75
2022/03/26 11:38:31;;;;;;;30.85;20.45;;;;;;;;;;4983856;28;20378;-79
2022/03/26 11:41:01;;;;;;;32.00;21.80;;;;;;;;;;4983336;28;20188;-77
2022/03/26 11:43:43;;;;;;;31.98;22.23;;;;;;;;;;4979650;28;20208;-83
2022/03/26 11:51:40;;;;;;;32.20;20.88;;;;;;;;;;4975434;28;20258;-78
2022/03/26 11:54:09;;;;;;;26.83;20.77;;;;;;;;;;4980775;28;20211;-82
2022/03/26 11:56:35;;;;;;;37.53;21.23;;;;;;;;;;4980740;28;20844;-80
2022/03/26 11:59:01;;;;;;;30.67;21.70;;;;;;;;;;4983345;28;20436;-79
2022/03/26 12:01:34;;;;;;;29.73;20.93;;;;;;;;;;4972568;28;20449;-80
2022/03/26 12:04:08;;;;;;;32.87;22.50;;;;;;;;;;4979283;28;20569;-80
2022/03/26 12:06:41;;;;;;;30.20;23.13;;;;;;;;;;4982752;28;20441;-79
2022/03/26 12:09:10;;;;;;;29.13;22.03;;;;;;;;;;4983030;28;20784;-82
2022/03/26 12:11:36;;;;;;;27.90;21.70;;;;;;;;;;4972788;28;20470;-81
2022/03/26 12:14:06;;;;;;;31.70;21.57;;;;;;;;;;4980596;28;20434;-80
2022/03/26 12:16:51;;;;;;;25.77;20.70;;;;;;;;;;4982182;28;20475;-82
2022/03/26 12:19:35;;;;;;;31.63;21.60;;;;;;;;;;4984223;28;20420;-80
2022/03/26 12:22:21;;;;;;;26.73;20.90;;;;;;;;;;4982144;28;20574;-79
2022/03/26 12:24:48;;;;;;;27.97;21.97;;;;;;;;;;4985251;28;20455;-77
2022/03/26 12:27:15;;;;;;;24.40;19.83;;;;;;;;;;4985573;28;20442;-84
2022/03/26 12:29:42;;;;;;;28.43;22.10;;;;;;;;;;4982575;28;20435;-80
2022/03/26 12:32:08;;;;;;;25.50;20.57;;;;;;;;;;4985904;28;20429;-80
2022/03/26 12:34:50;;;;;;;27.57;21.10;;;;;;;;;;4985868;28;20423;-81
2022/03/26 12:37:17;;;;;;;26.27;19.63;;;;;;;;;;4983078;28;20468;-81
2022/03/26 12:39:46;;;;;;;26.73;21.40;;;;;;;;;;4981237;28;20450;-80
2022/03/26 12:42:12;;;;;;;25.17;19.93;;;;;;;;;;4990149;28;20500;-81
2022/03/26 12:44:39;;;;;;;27.60;21.50;;;;;;;;;;4986042;28;20455;-81
2022/03/26 12:47:05;;;;;;;25.43;21.00;;;;;;;;;;4981673;28;20428;-80
2022/03/26 12:49:35;;;;;;;26.33;20.87;;;;;;;;;;4985327;28;20458;-80
2022/03/26 12:52:01;;;;;;;23.27;20.77;;;;;;;;;;4984880;28;20482;-81
2022/03/26 12:54:31;;;;;;;28.37;22.53;;;;;;;;;;4984387;28;20493;-80
2022/03/26 12:56:57;;;;;;;25.73;22.50;;;;;;;;;;4984979;28;20467;-80
2022/03/26 12:59:23;;;;;;;24.87;19.47;;;;;;;;;;4985061;28;20470;-81
2022/03/26 13:01:56;;;;;;;21.30;19.00;;;;;;;;;;4986924;28;20431;-82
2022/03/26 13:04:22;;;;;;;26.20;20.63;;;;;;;;;;4976070;28;20471;-80
2022/03/26 13:06:52;;;;;;;22.30;19.97;;;;;;;;;;4979635;28;20435;-81
2022/03/26 13:09:18;;;;;;;26.70;22.03;;;;;;;;;;4986298;28;20438;-81
2022/03/26 13:11:44;;;;;;;22.37;19.60;;;;;;;;;;5000026;28;20504;-81
2022/03/26 13:14:11;;;;;;;22.17;19.77;;;;;;;;;;4985992;28;20438;-78
2022/03/26 13:16:37;;;;;;;24.77;21.27;;;;;;;;;;4986475;28;20494;-81
2022/03/26 13:19:07;;;;;;;21.47;19.17;;;;;;;;;;4985866;28;20486;-81
2022/03/26 13:21:35;;;;;;;24.10;21.30;;;;;;;;;;4986051;28;20494;-81
2022/03/26 13:24:08;;;;;;;22.43;20.07;;;;;;;;;;4986044;28;20431;-80
2022/03/26 13:26:47;;;;;;;21.63;19.53;;;;;;;;;;4984162;28;20451;-81
2022/03/26 13:29:42;;;;;;;22.80;20.33;;;;;;;;;;4980708;28;20423;-80
2022/03/26 13:32:09;;;;;;;22.97;20.40;;;;;;;;;;4980033;28;20420;-80
2022/03/26 13:34:39;;;;;;;24.40;21.90;;;;;;;;;;4966040;28;20420;-81
2022/03/26 13:37:15;;;;;;;24.30;21.90;;;;;;;;;;4982969;28;20474;-77
2022/03/26 13:39:50;;;;;;;23.60;21.13;;;;;;;;;;4967185;28;20439;-81
2022/03/26 13:42:18;;;;;;;26.83;20.13;;;;;;;;;;4980986;28;20477;-83
2022/03/26 13:44:45;;;;;;;21.50;19.23;;;;;;;;;;4981799;28;20446;-84
2022/03/26 13:47:34;;;;;;;27.00;20.43;;;;;;;;;;4982434;28;20435;-83
2022/03/26 13:50:06;;;;;;;22.07;19.30;;;;;;;;;;4979573;28;20984;-83
2022/03/26 13:52:32;;;;;;;22.97;19.37;;;;;;;;;;4965834;28;20439;-83
2022/03/26 13:54:58;;;;;;;22.70;19.73;;;;;;;;;;4965298;28;20462;-82
2022/03/26 13:57:35;;;;;;;27.57;19.57;;;;;;;;;;4965891;28;20470;-79
2022/03/26 14:00:08;;;;;;;23.57;19.63;;;;;;;;;;4965402;28;20443;-85
2022/03/26 14:02:36;;;;;;;21.70;19.10;;;;;;;;;;4965328;28;20501;-82
2022/03/26 14:05:02;;;;;;;25.67;19.10;;;;;;;;;;4982483;28;20419;-81
2022/03/26 14:07:28;;;;;;;23.40;17.83;;;;;;;;;;4981253;28;20533;-81
2022/03/26 14:09:54;;;;;;;20.30;17.73;;;;;;;;;;4979315;28;21020;-82
2022/03/26 14:12:20;;;;;;;21.90;19.27;;;;;;;;;;4989433;28;20493;-78
2022/03/26 14:14:46;;;;;;;21.57;19.37;;;;;;;;;;4985418;28;20439;-82
2022/03/26 14:17:12;;;;;;;20.13;17.77;;;;;;;;;;4984377;28;20533;-83
2022/03/26 14:19:38;;;;;;;20.53;18.27;;;;;;;;;;4985753;28;20456;-81
2022/03/26 14:22:05;;;;;;;20.73;18.53;;;;;;;;;;4985540;28;20527;-83
2022/03/26 14:24:31;;;;;;;20.80;18.57;;;;;;;;;;4996875;28;20446;-80
2022/03/26 14:26:57;;;;;;;23.77;18.20;;;;;;;;;;4982753;28;20433;-79
2022/03/26 14:29:24;;;;;;;22.37;18.20;;;;;;;;;;4984590;28;20423;-80